AFL1731 UHPP-UUEE
Flight info
| Callsign | AFL1731 |
|---|---|
| Flight time | N/A |
| Altitude | 34000 |
| Route | BAKEN4L BAKEN A812 PANAR/K0887F360 A812 OLEGA T411 LABAR M131 ORTIB/K0893F380 M131 AMEGO P65 ROMTA ROMTA3F |
| Aircraft | B77W/H-SDE1E2E3FGHIJ2J3J4J5M1RWXY/LB1D1 |
Departure
| Time | 2026-04-19 00:13 |
|---|---|
| Airport | Yelizovo Airport (UHPP) |
Arrival
| Time | N/A |
|---|---|
| Airport | Sheremetyevo International Airport (UUEE) |
| Time | Latitude | Longitude | Altitude | Speed | Heading |
|---|---|---|---|---|---|
| 2026-04-18 22:52 | 53.16971 | 158.42918 | 127 ft | 0 kts | 40° |
| 2026-04-18 23:48 | 53.16972 | 158.42918 | 127 ft | 0 kts | 40° |
| 2026-04-19 00:00 | 53.16983 | 158.42929 | 127 ft | 2 kts | 24° |
| 2026-04-19 00:00 | 53.17018 | 158.42947 | 127 ft | 8 kts | 11° |
| 2026-04-19 00:01 | 53.17079 | 158.42984 | 127 ft | 9 kts | 34° |
| 2026-04-19 00:01 | 53.17120 | 158.43071 | 127 ft | 11 kts | 58° |
| 2026-04-19 00:01 | 53.17168 | 158.43207 | 127 ft | 15 kts | 60° |
| 2026-04-19 00:01 | 53.17224 | 158.43364 | 127 ft | 15 kts | 59° |
| 2026-04-19 00:02 | 53.17278 | 158.43518 | 127 ft | 16 kts | 59° |
| 2026-04-19 00:02 | 53.17333 | 158.43672 | 127 ft | 14 kts | 60° |
| 2026-04-19 00:02 | 53.17381 | 158.43814 | 127 ft | 13 kts | 59° |
| 2026-04-19 00:02 | 53.17425 | 158.43941 | 128 ft | 12 kts | 60° |
| 2026-04-19 00:03 | 53.17464 | 158.44057 | 128 ft | 10 kts | 67° |
| 2026-04-19 00:03 | 53.17491 | 158.44168 | 128 ft | 9 kts | 67° |
| 2026-04-19 00:03 | 53.17516 | 158.44270 | 128 ft | 9 kts | 67° |
| 2026-04-19 00:03 | 53.17520 | 158.44318 | 128 ft | 2 kts | 110° |
| 2026-04-19 00:04 | 53.17506 | 158.44348 | 128 ft | 5 kts | 136° |
| 2026-04-19 00:04 | 53.17462 | 158.44395 | 128 ft | 9 kts | 154° |
| 2026-04-19 00:04 | 53.17386 | 158.44447 | 128 ft | 13 kts | 157° |
| 2026-04-19 00:04 | 53.17290 | 158.44514 | 128 ft | 16 kts | 157° |
| 2026-04-19 00:05 | 53.17176 | 158.44594 | 128 ft | 19 kts | 157° |
| 2026-04-19 00:05 | 53.17052 | 158.44679 | 128 ft | 18 kts | 157° |
| 2026-04-19 00:05 | 53.16938 | 158.44759 | 129 ft | 16 kts | 158° |
| 2026-04-19 00:05 | 53.16833 | 158.44830 | 129 ft | 15 kts | 156° |
| 2026-04-19 00:06 | 53.16739 | 158.44894 | 129 ft | 14 kts | 159° |
| 2026-04-19 00:06 | 53.16653 | 158.44954 | 129 ft | 12 kts | 155° |
| 2026-04-19 00:06 | 53.16574 | 158.45009 | 129 ft | 11 kts | 157° |
| 2026-04-19 00:06 | 53.16491 | 158.45067 | 129 ft | 14 kts | 156° |
| 2026-04-19 00:07 | 53.16396 | 158.45134 | 129 ft | 14 kts | 157° |
| 2026-04-19 00:07 | 53.16305 | 158.45197 | 129 ft | 13 kts | 156° |
| 2026-04-19 00:07 | 53.16222 | 158.45253 | 130 ft | 12 kts | 157° |
| 2026-04-19 00:07 | 53.16138 | 158.45311 | 130 ft | 12 kts | 157° |
| 2026-04-19 00:08 | 53.16098 | 158.45338 | 130 ft | 3 kts | 157° |
| 2026-04-19 00:08 | 53.16077 | 158.45357 | 130 ft | 2 kts | 137° |
| 2026-04-19 00:08 | 53.16070 | 158.45378 | 130 ft | 1 kts | 108° |
| 2026-04-19 00:08 | 53.16067 | 158.45418 | 130 ft | 5 kts | 86° |
| 2026-04-19 00:09 | 53.16083 | 158.45499 | 130 ft | 9 kts | 66° |
| 2026-04-19 00:09 | 53.16104 | 158.45589 | 130 ft | 6 kts | 85° |
| 2026-04-19 00:09 | 53.16083 | 158.45651 | 130 ft | 6 kts | 143° |
| 2026-04-19 00:09 | 53.16038 | 158.45686 | 130 ft | 8 kts | 158° |
| 2026-04-19 00:10 | 53.15975 | 158.45731 | 130 ft | 11 kts | 156° |
| 2026-04-19 00:10 | 53.15892 | 158.45790 | 130 ft | 14 kts | 157° |
| 2026-04-19 00:10 | 53.15805 | 158.45851 | 130 ft | 12 kts | 157° |
| 2026-04-19 00:10 | 53.15725 | 158.45905 | 130 ft | 11 kts | 162° |
| 2026-04-19 00:11 | 53.15647 | 158.45905 | 131 ft | 10 kts | 186° |
| 2026-04-19 00:11 | 53.15595 | 158.45926 | 131 ft | 3 kts | 120° |
| 2026-04-19 00:11 | 53.15596 | 158.45949 | 131 ft | 1 kts | 63° |
| 2026-04-19 00:11 | 53.15605 | 158.45962 | 131 ft | 2 kts | 28° |
| 2026-04-19 00:12 | 53.15630 | 158.45967 | 131 ft | 5 kts | 353° |
| 2026-04-19 00:12 | 53.15671 | 158.45943 | 131 ft | 7 kts | 336° |
| 2026-04-19 00:12 | 53.15753 | 158.45886 | 130 ft | 22 kts | 337° |
| 2026-04-19 00:12 | 53.16124 | 158.45630 | 130 ft | 96 kts | 337° |
| 2026-04-19 00:13 | 53.16978 | 158.45036 | 135 ft | 166 kts | 336° |
| 2026-04-19 00:13 | 53.18085 | 158.44261 | 885 ft | 173 kts | 336° |
| 2026-04-19 00:13 | 53.19177 | 158.43439 | 1761 ft | 171 kts | 338° |
| 2026-04-19 00:13 | 53.20274 | 158.42677 | 2305 ft | 176 kts | 340° |
| 2026-04-19 00:14 | 53.21412 | 158.41904 | 2903 ft | 179 kts | 339° |
| 2026-04-19 00:14 | 53.22568 | 158.41107 | 3425 ft | 186 kts | 339° |
| 2026-04-19 00:14 | 53.23806 | 158.40254 | 3796 ft | 202 kts | 339° |
| 2026-04-19 00:14 | 53.25143 | 158.39329 | 4198 ft | 218 kts | 338° |
| 2026-04-19 00:15 | 53.26588 | 158.38330 | 4610 ft | 235 kts | 338° |
| 2026-04-19 00:15 | 53.28162 | 158.37239 | 5106 ft | 251 kts | 338° |
| 2026-04-19 00:15 | 53.29814 | 158.36095 | 5695 ft | 263 kts | 338° |
| 2026-04-19 00:15 | 53.31496 | 158.34927 | 6450 ft | 269 kts | 337° |
| 2026-04-19 00:16 | 53.33236 | 158.33719 | 7252 ft | 272 kts | 337° |
| 2026-04-19 00:16 | 53.34974 | 158.32512 | 8134 ft | 272 kts | 336° |
| 2026-04-19 00:16 | 53.36651 | 158.31074 | 8961 ft | 273 kts | 327° |
| 2026-04-19 00:16 | 53.38231 | 158.29395 | 9802 ft | 273 kts | 326° |
| 2026-04-19 00:17 | 53.39836 | 158.27664 | 10433 ft | 281 kts | 326° |
| 2026-04-19 00:17 | 53.41512 | 158.25853 | 10832 ft | 297 kts | 326° |
| 2026-04-19 00:17 | 53.43304 | 158.23915 | 11253 ft | 313 kts | 326° |
| 2026-04-19 00:17 | 53.45150 | 158.21916 | 11657 ft | 328 kts | 326° |
| 2026-04-19 00:18 | 53.47106 | 158.19797 | 12072 ft | 343 kts | 326° |
| 2026-04-19 00:18 | 53.49160 | 158.17567 | 12543 ft | 357 kts | 326° |
| 2026-04-19 00:18 | 53.51251 | 158.15299 | 13244 ft | 363 kts | 326° |
| 2026-04-19 00:18 | 53.53357 | 158.13010 | 14055 ft | 365 kts | 326° |
| 2026-04-19 00:19 | 53.55495 | 158.10686 | 14853 ft | 368 kts | 326° |
| 2026-04-19 00:19 | 53.57658 | 158.08330 | 15660 ft | 371 kts | 325° |
| 2026-04-19 00:19 | 53.59801 | 158.05994 | 16419 ft | 374 kts | 325° |
| 2026-04-19 00:19 | 53.61975 | 158.03621 | 17148 ft | 377 kts | 325° |
| 2026-04-19 00:20 | 53.64171 | 158.01221 | 17864 ft | 380 kts | 324° |
| 2026-04-19 00:20 | 53.66391 | 157.98795 | 18554 ft | 384 kts | 325° |
| 2026-04-19 00:20 | 53.68711 | 157.96513 | 19236 ft | 388 kts | 328° |
| 2026-04-19 00:20 | 53.71070 | 157.94290 | 19895 ft | 392 kts | 328° |
| 2026-04-19 00:21 | 53.73420 | 157.92064 | 20552 ft | 395 kts | 328° |
| 2026-04-19 00:21 | 53.75839 | 157.89763 | 21181 ft | 398 kts | 327° |
| 2026-04-19 00:21 | 53.78236 | 157.87471 | 21802 ft | 401 kts | 327° |
| 2026-04-19 00:21 | 53.80672 | 157.85123 | 22380 ft | 405 kts | 327° |
| 2026-04-19 00:22 | 53.83105 | 157.82753 | 22947 ft | 409 kts | 327° |
| 2026-04-19 00:22 | 53.85585 | 157.80333 | 23507 ft | 412 kts | 327° |
| 2026-04-19 00:22 | 53.88069 | 157.77907 | 24049 ft | 415 kts | 327° |
| 2026-04-19 00:22 | 53.90548 | 157.75481 | 24551 ft | 419 kts | 327° |
| 2026-04-19 00:23 | 53.93071 | 157.73007 | 25059 ft | 422 kts | 327° |
| 2026-04-19 00:23 | 53.95622 | 157.70503 | 25520 ft | 426 kts | 327° |
| 2026-04-19 00:23 | 53.98173 | 157.67995 | 25972 ft | 429 kts | 327° |
| 2026-04-19 00:23 | 54.00767 | 157.65442 | 26414 ft | 433 kts | 327° |
| 2026-04-19 00:24 | 54.03348 | 157.62897 | 26852 ft | 436 kts | 327° |
| 2026-04-19 00:24 | 54.06013 | 157.60266 | 27281 ft | 440 kts | 327° |
| 2026-04-19 00:24 | 54.08644 | 157.57663 | 27689 ft | 444 kts | 327° |
| 2026-04-19 00:24 | 54.11340 | 157.54994 | 28124 ft | 447 kts | 327° |
| 2026-04-19 00:25 | 54.14083 | 157.52290 | 28484 ft | 452 kts | 327° |
| 2026-04-19 00:25 | 54.16801 | 157.49612 | 28842 ft | 455 kts | 327° |
| 2026-04-19 00:25 | 54.19563 | 157.46887 | 29324 ft | 455 kts | 327° |
| 2026-04-19 00:25 | 54.22293 | 157.44189 | 29825 ft | 454 kts | 327° |
| 2026-04-19 00:26 | 54.25040 | 157.41470 | 30295 ft | 454 kts | 327° |
| 2026-04-19 00:26 | 54.27737 | 157.38794 | 30697 ft | 454 kts | 327° |
| 2026-04-19 00:26 | 54.30485 | 157.36064 | 31088 ft | 455 kts | 327° |
| 2026-04-19 00:26 | 54.33243 | 157.33321 | 31439 ft | 455 kts | 327° |
| 2026-04-19 00:27 | 54.35979 | 157.30594 | 31764 ft | 455 kts | 327° |
| 2026-04-19 00:27 | 54.38722 | 157.27855 | 32052 ft | 456 kts | 327° |
| 2026-04-19 00:27 | 54.41437 | 157.25140 | 32318 ft | 458 kts | 327° |
| 2026-04-19 00:27 | 54.44174 | 157.22400 | 32568 ft | 460 kts | 327° |
| 2026-04-19 00:28 | 54.46946 | 157.19618 | 32833 ft | 461 kts | 327° |
| 2026-04-19 00:28 | 54.49718 | 157.16834 | 33101 ft | 463 kts | 327° |
| 2026-04-19 00:28 | 54.52511 | 157.14024 | 33367 ft | 464 kts | 327° |
| 2026-04-19 00:28 | 54.55268 | 157.11246 | 33615 ft | 466 kts | 327° |
| 2026-04-19 00:29 | 54.58090 | 157.08395 | 33736 ft | 470 kts | 327° |
| 2026-04-19 00:29 | 54.63711 | 157.02710 | 33770 ft | 468 kts | 327° |
| 2026-04-19 00:30 | 54.69270 | 156.97067 | 33809 ft | 469 kts | 327° |
| 2026-04-19 00:30 | 54.74885 | 156.91351 | 33830 ft | 468 kts | 327° |
| 2026-04-19 00:31 | 54.80489 | 156.85626 | 33846 ft | 468 kts | 327° |
| 2026-04-19 00:31 | 54.86076 | 156.79900 | 33855 ft | 469 kts | 328° |
| 2026-04-19 00:32 | 54.91682 | 156.74141 | 33857 ft | 470 kts | 328° |
| 2026-04-19 00:32 | 54.97301 | 156.68350 | 33864 ft | 471 kts | 328° |
| 2026-04-19 00:33 | 55.02932 | 156.62517 | 33876 ft | 472 kts | 328° |
| 2026-04-19 00:33 | 55.08539 | 156.56685 | 33881 ft | 471 kts | 328° |
| 2026-04-19 00:34 | 55.16964 | 156.47894 | 33886 ft | 471 kts | 328° |
| 2026-04-19 00:34 | 55.22600 | 156.42004 | 33886 ft | 471 kts | 328° |
| 2026-04-19 00:35 | 55.28195 | 156.36137 | 33892 ft | 471 kts | 328° |
| 2026-04-19 00:35 | 55.33818 | 156.30220 | 33898 ft | 472 kts | 327° |